createdAt,value
2023-05-13T00:01:45.696Z,4.10
2023-05-13T00:04:12.003Z,4.85
2023-05-13T00:06:38.492Z,4.55
2023-05-13T00:09:04.926Z,4.07
2023-05-13T00:11:31.265Z,4.50
2023-05-13T00:13:57.818Z,4.30
2023-05-13T00:16:27.665Z,4.75
2023-05-13T00:18:54.753Z,4.80
2023-05-13T00:21:21.448Z,4.68
2023-05-13T00:23:47.942Z,5.05
2023-05-13T00:26:14.366Z,4.47
2023-05-13T00:28:40.649Z,4.07
2023-05-13T00:31:07.082Z,3.80
2023-05-13T00:33:33.480Z,3.72
2023-05-13T00:35:59.826Z,3.95
2023-05-13T00:38:26.204Z,3.58
2023-05-13T00:40:52.628Z,3.70
2023-05-13T00:43:18.927Z,4.13
2023-05-13T00:45:45.903Z,4.13
2023-05-13T00:48:12.421Z,4.00
2023-05-13T00:50:39.049Z,3.55
2023-05-13T00:53:05.434Z,3.47
2023-05-13T00:55:31.974Z,3.63
2023-05-13T00:57:58.318Z,3.88
2023-05-13T01:00:24.729Z,3.40
2023-05-13T01:03:06.072Z,3.40
2023-05-13T01:05:44.910Z,3.70
2023-05-13T01:08:18.148Z,3.72
2023-05-13T01:10:47.689Z,4.07
2023-05-13T01:13:16.858Z,3.97
2023-05-13T01:15:49.581Z,3.92
2023-05-13T01:18:19.828Z,3.70
2023-05-13T01:20:46.456Z,4.35
2023-05-13T01:23:12.923Z,4.25
2023-05-13T01:25:40.149Z,3.80
2023-05-13T01:28:07.585Z,3.80
2023-05-13T01:30:34.415Z,3.70
2023-05-13T01:33:01.481Z,4.07
2023-05-13T01:35:28.785Z,3.90
2023-05-13T01:37:57.175Z,3.53
2023-05-13T01:40:32.275Z,3.67
2023-05-13T01:42:59.747Z,3.80
2023-05-13T01:45:27.921Z,4.03
2023-05-13T01:47:54.273Z,4.20
2023-05-13T01:50:20.895Z,4.13
2023-05-13T01:52:47.524Z,4.18
2023-05-13T01:55:13.946Z,4.28
2023-05-13T01:57:40.309Z,4.30
2023-05-13T02:00:07.066Z,3.85
2023-05-13T02:02:33.572Z,3.78
2023-05-13T02:04:59.973Z,3.85
2023-05-13T02:07:26.308Z,3.70
2023-05-13T02:09:59.613Z,3.38
2023-05-13T02:12:26.871Z,3.85
2023-05-13T02:14:54.140Z,3.38
2023-05-13T02:17:20.773Z,4.05
2023-05-13T02:19:47.162Z,4.25
2023-05-13T02:22:13.443Z,4.00
2023-05-13T02:24:42.881Z,4.13
2023-05-13T02:27:11.996Z,4.05
2023-05-13T02:29:38.860Z,3.42
2023-05-13T02:32:05.662Z,3.72
2023-05-13T02:34:31.942Z,4.00
2023-05-13T02:36:58.262Z,3.85
2023-05-13T02:39:24.628Z,3.92
2023-05-13T02:41:51.031Z,3.80
2023-05-13T02:44:17.365Z,3.80
2023-05-13T02:46:44.312Z,3.85
2023-05-13T02:49:11.214Z,3.45
2023-05-13T02:51:37.625Z,4.05
2023-05-13T02:54:03.966Z,3.70
2023-05-13T02:56:30.291Z,3.42
2023-05-13T02:58:56.800Z,3.97
2023-05-13T03:01:23.304Z,3.53
2023-05-13T03:03:50.162Z,3.90
2023-05-13T03:06:16.448Z,3.47
2023-05-13T03:08:42.803Z,4.00
2023-05-13T03:11:09.144Z,3.95
2023-05-13T03:13:35.832Z,4.15
2023-05-13T03:16:02.182Z,3.40
2023-05-13T03:18:31.527Z,3.38
2023-05-13T03:20:58.534Z,3.65
2023-05-13T03:23:24.922Z,4.10
2023-05-13T03:25:51.241Z,3.72
2023-05-13T03:28:17.679Z,3.60
2023-05-13T03:30:44.245Z,4.20
2023-05-13T03:33:10.761Z,3.78
2023-05-13T03:35:37.200Z,3.70
2023-05-13T03:38:03.722Z,4.28
2023-05-13T03:40:30.606Z,3.53
2023-05-13T03:42:56.984Z,3.67
2023-05-13T03:45:23.321Z,3.92
2023-05-13T03:47:49.919Z,3.22
2023-05-13T03:50:16.514Z,4.00
2023-05-13T03:52:43.988Z,3.50
2023-05-13T03:55:12.123Z,4.20
2023-05-13T03:57:38.581Z,3.60
2023-05-13T04:00:05.551Z,3.97
2023-05-13T04:02:32.156Z,3.90
2023-05-13T04:05:00.702Z,3.50
2023-05-13T04:07:29.002Z,3.60
2023-05-13T04:09:59.501Z,3.22
2023-05-13T04:12:34.312Z,3.70
2023-05-13T04:15:05.637Z,3.60
2023-05-13T04:20:19.962Z,4.15
2023-05-13T04:22:46.668Z,4.20
2023-05-13T04:25:12.977Z,3.47
2023-05-13T04:27:39.349Z,3.72
2023-05-13T04:30:06.080Z,3.85
2023-05-13T04:32:32.626Z,3.13
2023-05-13T04:34:59.522Z,3.97
2023-05-13T04:37:26.543Z,3.90
2023-05-13T04:39:53.162Z,3.80
2023-05-13T04:42:19.553Z,3.75
2023-05-13T04:44:46.021Z,4.03
2023-05-13T04:47:12.369Z,3.83
2023-05-13T04:49:38.753Z,4.07
2023-05-13T04:52:06.425Z,3.50
2023-05-13T04:54:35.423Z,3.85
2023-05-13T04:57:02.186Z,3.80
2023-05-13T04:59:28.592Z,3.90
2023-05-13T05:04:21.617Z,3.72
2023-05-13T05:06:48.721Z,3.50
2023-05-13T05:09:15.111Z,3.38
2023-05-13T05:11:41.463Z,4.05
2023-05-13T05:14:07.758Z,3.30
2023-05-13T05:16:34.073Z,4.00
2023-05-13T05:19:00.486Z,3.50
2023-05-13T05:21:26.791Z,3.90
2023-05-13T05:23:53.354Z,3.55
2023-05-13T05:26:19.744Z,3.70
2023-05-13T05:28:46.300Z,3.83
2023-05-13T05:31:12.842Z,4.10
2023-05-13T05:33:41.734Z,3.83
2023-05-13T05:36:08.398Z,3.92
2023-05-13T05:38:34.778Z,3.97
2023-05-13T05:41:01.314Z,3.50
2023-05-13T05:43:30.833Z,4.18
2023-05-13T05:45:57.183Z,3.88
2023-05-13T05:48:23.618Z,3.83
2023-05-13T05:50:49.987Z,3.53
2023-05-13T05:53:16.330Z,3.78
2023-05-13T05:55:42.747Z,3.35
2023-05-13T05:58:10.085Z,3.90
2023-05-13T06:00:36.463Z,4.57
2023-05-13T06:03:02.891Z,3.95
2023-05-13T06:05:29.360Z,3.88
2023-05-13T06:07:55.757Z,3.92
2023-05-13T06:10:22.294Z,4.63
2023-05-13T06:12:48.767Z,4.60
2023-05-13T06:15:44.392Z,3.95
2023-05-13T06:18:10.825Z,4.05
2023-05-13T06:20:37.225Z,4.60
2023-05-13T06:23:03.505Z,4.13
2023-05-13T06:25:29.926Z,3.83
2023-05-13T06:27:56.288Z,3.92
2023-05-13T06:30:23.482Z,3.53
2023-05-13T06:32:57.701Z,3.95
2023-05-13T06:35:28.638Z,3.58
2023-05-13T06:37:55.049Z,3.20
2023-05-13T06:40:21.658Z,3.25
2023-05-13T06:42:48.336Z,3.35
2023-05-13T06:45:14.715Z,3.45
2023-05-13T06:47:41.054Z,3.45
2023-05-13T06:50:07.426Z,3.55
2023-05-13T06:52:33.733Z,4.00
2023-05-13T06:55:00.038Z,3.88
2023-05-13T06:57:38.840Z,3.90
2023-05-13T07:00:08.746Z,3.88
2023-05-13T07:02:35.127Z,3.80
2023-05-13T07:05:01.559Z,3.88
2023-05-13T07:07:27.881Z,4.40
2023-05-13T07:09:54.222Z,4.70
2023-05-13T07:12:20.534Z,4.72
2023-05-13T07:14:46.965Z,5.32
2023-05-13T07:17:13.369Z,5.10
2023-05-13T07:19:39.766Z,4.60
2023-05-13T07:22:06.182Z,5.05
2023-05-13T07:24:32.466Z,5.05
2023-05-13T07:26:58.934Z,5.25
2023-05-13T07:29:27.058Z,5.30
2023-05-13T07:31:54.020Z,4.97
2023-05-13T07:34:20.363Z,6.55
2023-05-13T07:36:46.740Z,5.75
2023-05-13T07:39:13.048Z,6.20
2023-05-13T07:41:39.583Z,5.57
2023-05-13T07:44:05.957Z,5.80
2023-05-13T07:46:32.383Z,5.95
2023-05-13T07:48:58.706Z,6.13
2023-05-13T07:51:25.175Z,6.28
2023-05-13T07:53:51.907Z,7.10
2023-05-13T07:56:18.274Z,5.95
2023-05-13T07:58:46.001Z,6.25
2023-05-13T08:01:12.351Z,6.05
2023-05-13T08:03:38.866Z,6.63
2023-05-13T08:06:05.773Z,7.28
2023-05-13T08:08:32.145Z,7.43
2023-05-13T08:10:58.677Z,7.10
2023-05-13T08:13:25.859Z,7.22
2023-05-13T08:15:52.579Z,6.72
2023-05-13T08:18:18.997Z,7.65
2023-05-13T08:20:45.335Z,7.30
2023-05-13T08:23:11.692Z,7.68
2023-05-13T08:25:38.043Z,7.90
2023-05-13T08:28:04.471Z,7.55
2023-05-13T08:30:31.043Z,7.72
2023-05-13T08:32:57.557Z,7.68
2023-05-13T08:35:24.107Z,8.60
2023-05-13T08:37:50.673Z,8.73
2023-05-13T08:40:17.090Z,8.45
2023-05-13T08:42:46.150Z,8.48
2023-05-13T08:45:12.986Z,8.70
2023-05-13T08:47:50.331Z,8.55
2023-05-13T08:50:17.162Z,7.90
2023-05-13T08:52:43.750Z,8.45
2023-05-13T08:55:10.467Z,8.00
2023-05-13T08:57:36.843Z,8.10
2023-05-13T09:00:04.810Z,8.23
2023-05-13T09:02:31.446Z,7.85
2023-05-13T09:04:59.883Z,8.07
2023-05-13T09:07:26.465Z,7.47
2023-05-13T09:09:53.165Z,7.32
2023-05-13T09:12:38.135Z,7.88
2023-05-13T09:15:08.516Z,7.32
2023-05-13T09:17:38.501Z,6.82
2023-05-13T09:20:07.148Z,6.70
2023-05-13T09:22:33.740Z,7.35
2023-05-13T09:25:00.021Z,6.97
2023-05-13T09:27:39.282Z,7.53
2023-05-13T09:30:06.114Z,6.75
2023-05-13T09:32:32.700Z,6.65
2023-05-13T09:35:08.299Z,7.00
2023-05-13T09:37:34.677Z,6.85
2023-05-13T09:40:01.035Z,6.97
2023-05-13T09:42:27.408Z,6.28
2023-05-13T09:44:53.806Z,6.38
2023-05-13T09:47:20.165Z,6.72
2023-05-13T09:49:54.576Z,6.20
2023-05-13T09:52:22.038Z,5.95
2023-05-13T09:54:48.416Z,5.60
2023-05-13T09:57:14.949Z,6.32
2023-05-13T09:59:41.583Z,5.32
2023-05-13T10:02:11.254Z,5.20
2023-05-13T10:04:37.657Z,5.25
2023-05-13T10:07:04.394Z,5.18
2023-05-13T10:09:33.486Z,4.75
2023-05-13T10:12:00.162Z,4.78
2023-05-13T10:14:26.768Z,5.30
2023-05-13T10:16:53.207Z,5.28
2023-05-13T10:19:19.924Z,4.60
2023-05-13T10:21:47.544Z,4.85
2023-05-13T10:24:13.954Z,4.63
2023-05-13T10:26:41.760Z,4.45
2023-05-13T10:29:08.419Z,4.40
2023-05-13T10:31:35.127Z,4.55
2023-05-13T10:34:01.493Z,4.60
2023-05-13T10:36:34.851Z,4.68
2023-05-13T10:39:01.267Z,4.55
2023-05-13T10:41:46.523Z,3.90
2023-05-13T10:44:12.937Z,4.35
2023-05-13T10:46:39.844Z,4.57
2023-05-13T10:49:16.294Z,4.25
2023-05-13T10:51:47.319Z,4.40
2023-05-13T10:54:25.007Z,4.13
2023-05-13T10:56:57.748Z,4.18
2023-05-13T10:59:24.111Z,4.03
2023-05-13T11:01:50.491Z,4.10
2023-05-13T11:04:18.117Z,4.05
2023-05-13T11:06:46.450Z,3.78
2023-05-13T11:09:15.815Z,3.70
2023-05-13T11:11:42.219Z,3.70
2023-05-13T11:14:14.220Z,4.10
2023-05-13T11:16:45.392Z,4.18
2023-05-13T11:19:19.498Z,3.92
2023-05-13T11:21:47.807Z,3.78
2023-05-13T11:24:17.021Z,3.78
2023-05-13T11:26:48.528Z,3.85
2023-05-13T11:29:15.896Z,3.60
2023-05-13T11:31:49.793Z,3.72
2023-05-13T11:34:17.278Z,3.85
2023-05-13T11:36:47.415Z,3.75
2023-05-13T11:39:14.909Z,3.90
2023-05-13T11:41:42.484Z,4.10
2023-05-13T11:44:08.905Z,3.25
2023-05-13T11:46:36.283Z,3.63
2023-05-13T11:49:03.739Z,3.60
2023-05-13T11:51:33.826Z,3.72
2023-05-13T11:54:01.108Z,3.33
2023-05-13T11:56:28.685Z,3.58
2023-05-13T11:58:55.529Z,3.50
2023-05-13T12:01:25.323Z,3.08
2023-05-13T12:04:01.027Z,3.33
2023-05-13T12:08:53.764Z,3.20
2023-05-13T12:11:20.151Z,3.30
2023-05-13T12:13:47.032Z,3.35
2023-05-13T12:16:13.855Z,3.50
2023-05-13T12:18:40.566Z,3.08
2023-05-13T12:21:13.725Z,3.67
2023-05-13T12:23:40.912Z,3.40
2023-05-13T12:26:07.834Z,3.42
2023-05-13T12:28:34.233Z,3.40
2023-05-13T12:31:00.713Z,3.00
2023-05-13T12:33:28.221Z,3.22
2023-05-13T12:36:14.317Z,3.45
2023-05-13T12:38:40.689Z,2.90
2023-05-13T12:41:13.429Z,3.03
2023-05-13T12:43:40.822Z,3.17
2023-05-13T12:46:07.278Z,3.30
2023-05-13T12:48:33.633Z,3.22
2023-05-13T12:51:02.020Z,2.90
2023-05-13T12:53:28.782Z,3.10
2023-05-13T12:55:55.113Z,3.15
2023-05-13T12:58:21.428Z,2.92
2023-05-13T13:00:48.027Z,3.17
2023-05-13T13:03:14.665Z,3.22
2023-05-13T13:05:41.267Z,3.08
2023-05-13T13:08:08.018Z,2.90
2023-05-13T13:10:34.763Z,2.80
2023-05-13T13:13:01.441Z,3.17
2023-05-13T13:15:27.774Z,2.80
2023-05-13T13:17:54.211Z,3.33
2023-05-13T13:20:20.626Z,3.10
2023-05-13T13:22:46.939Z,3.38
2023-05-13T13:25:13.229Z,3.08
2023-05-13T13:27:39.557Z,2.70
2023-05-13T13:30:06.403Z,2.97
2023-05-13T13:32:35.287Z,3.00
2023-05-13T13:35:03.187Z,2.92
2023-05-13T13:37:30.217Z,2.80
2023-05-13T13:39:56.559Z,2.63
2023-05-13T13:42:40.294Z,3.20
2023-05-13T13:45:09.916Z,2.80
2023-05-13T13:47:36.383Z,2.65
2023-05-13T13:50:02.792Z,2.60
2023-05-13T13:52:29.168Z,3.25
2023-05-13T13:54:55.607Z,3.20
2023-05-13T13:57:21.983Z,2.88
2023-05-13T13:59:48.342Z,3.08
2023-05-13T14:02:14.668Z,2.90
2023-05-13T14:04:41.072Z,3.20
2023-05-13T14:07:07.336Z,2.92
2023-05-13T14:09:33.722Z,2.92
2023-05-13T14:12:00.034Z,2.70
2023-05-13T14:14:26.391Z,2.70
2023-05-13T14:16:52.706Z,2.85
2023-05-13T14:19:19.129Z,2.60
2023-05-13T14:21:46.033Z,2.88
2023-05-13T14:24:12.322Z,3.10
2023-05-13T14:26:39.058Z,3.15
2023-05-13T14:29:05.420Z,3.13
2023-05-13T14:31:31.839Z,2.85
2023-05-13T14:33:58.550Z,2.40
2023-05-13T14:36:26.876Z,3.17
2023-05-13T14:38:54.049Z,3.22
2023-05-13T14:41:20.916Z,3.13
2023-05-13T14:43:47.337Z,2.85
2023-05-13T14:46:13.956Z,2.90
2023-05-13T14:48:40.521Z,3.10
2023-05-13T14:51:07.151Z,3.33
2023-05-13T14:53:33.539Z,2.83
2023-05-13T14:55:59.845Z,3.22
2023-05-13T14:58:26.304Z,3.00
2023-05-13T15:00:53.464Z,2.83
2023-05-13T15:03:20.770Z,2.83
2023-05-13T15:05:47.118Z,3.08
2023-05-13T15:08:13.449Z,2.83
2023-05-13T15:10:39.967Z,2.97
2023-05-13T15:13:06.424Z,2.60
2023-05-13T15:15:33.646Z,2.83
2023-05-13T15:18:00.037Z,2.42
2023-05-13T15:20:28.304Z,2.38
2023-05-13T15:22:55.053Z,3.05
2023-05-13T15:25:21.399Z,2.75
2023-05-13T15:27:47.828Z,2.60
2023-05-13T15:30:14.735Z,3.10
2023-05-13T15:32:41.190Z,2.83
2023-05-13T15:35:07.848Z,2.97
2023-05-13T15:37:36.678Z,2.95
2023-05-13T15:40:03.547Z,2.45
2023-05-13T15:42:29.910Z,2.28
2023-05-13T15:44:56.267Z,2.13
2023-05-13T15:47:22.764Z,2.60
2023-05-13T15:49:50.727Z,2.40
2023-05-13T15:52:17.134Z,2.35
2023-05-13T15:54:43.418Z,2.75
2023-05-13T15:57:09.768Z,2.40
2023-05-13T15:59:36.130Z,2.55
2023-05-13T16:02:02.540Z,2.15
2023-05-13T16:04:29.044Z,2.15
2023-05-13T16:06:57.779Z,2.58
2023-05-13T16:09:25.585Z,2.45
2023-05-13T16:11:52.088Z,2.22
2023-05-13T16:14:19.496Z,2.25
2023-05-13T16:16:46.023Z,2.15
2023-05-13T16:19:13.681Z,2.22
2023-05-13T16:21:41.815Z,2.60
2023-05-13T16:24:08.317Z,2.67
2023-05-13T16:26:34.865Z,2.95
2023-05-13T16:29:01.223Z,2.60
2023-05-13T16:31:27.753Z,3.03
2023-05-13T16:33:55.170Z,2.75
2023-05-13T16:36:21.717Z,2.70
2023-05-13T16:38:50.650Z,2.85
2023-05-13T16:41:16.967Z,2.70
2023-05-13T16:43:43.384Z,3.10
2023-05-13T16:46:09.772Z,2.83
2023-05-13T16:48:36.685Z,2.85
2023-05-13T16:51:03.628Z,3.10
2023-05-13T16:53:30.019Z,2.70
2023-05-13T16:55:56.322Z,2.50
2023-05-13T16:58:22.718Z,2.92
2023-05-13T17:00:49.042Z,2.67
2023-05-13T17:03:15.752Z,2.80
2023-05-13T17:05:42.454Z,2.85
2023-05-13T17:08:08.712Z,2.75
2023-05-13T17:10:34.949Z,2.58
2023-05-13T17:13:01.257Z,2.88
2023-05-13T17:15:27.533Z,3.13
2023-05-13T17:17:53.864Z,3.03
2023-05-13T17:20:20.525Z,3.05
2023-05-13T17:22:47.498Z,2.78
2023-05-13T17:25:14.513Z,3.10
2023-05-13T17:27:40.911Z,3.00
2023-05-13T17:30:07.787Z,2.95
2023-05-13T17:32:34.200Z,2.97
2023-05-13T17:35:00.742Z,3.42
2023-05-13T17:37:27.114Z,2.95
2023-05-13T17:39:54.696Z,2.80
2023-05-13T17:42:21.772Z,3.33
2023-05-13T17:44:48.225Z,2.88
2023-05-13T17:47:14.711Z,2.67
2023-05-13T17:49:40.995Z,2.58
2023-05-13T17:52:07.309Z,2.83
2023-05-13T17:54:33.545Z,3.00
2023-05-13T17:56:59.918Z,2.90
2023-05-13T17:59:26.219Z,2.97
2023-05-13T18:01:52.556Z,2.78
2023-05-13T18:04:19.090Z,2.92
2023-05-13T18:06:45.405Z,3.17
2023-05-13T18:09:11.974Z,3.15
2023-05-13T18:11:38.282Z,2.47
2023-05-13T18:14:04.613Z,2.92
2023-05-13T18:16:31.050Z,2.78
2023-05-13T18:18:57.772Z,2.72
2023-05-13T18:21:26.403Z,2.85
2023-05-13T18:23:52.983Z,2.80
2023-05-13T18:26:19.333Z,3.03
2023-05-13T18:28:45.697Z,2.72
2023-05-13T18:31:12.060Z,2.90
2023-05-13T18:33:38.562Z,2.78
2023-05-13T18:36:05.150Z,2.95
2023-05-13T18:38:31.492Z,3.42
2023-05-13T18:41:02.986Z,2.80
2023-05-13T18:43:29.917Z,3.05
2023-05-13T18:45:57.757Z,3.88
2023-05-13T18:48:25.130Z,2.70
2023-05-13T18:50:53.016Z,2.90
2023-05-13T18:53:19.632Z,2.88
2023-05-13T18:55:46.521Z,2.80
2023-05-13T18:58:13.547Z,2.90
2023-05-13T19:00:39.857Z,2.90
2023-05-13T19:03:06.305Z,3.20
2023-05-13T19:05:33.065Z,2.85
2023-05-13T19:08:00.460Z,2.83
2023-05-13T19:10:26.893Z,2.60
2023-05-13T19:12:53.252Z,3.13
2023-05-13T19:15:25.000Z,2.83
2023-05-13T19:17:54.463Z,3.05
2023-05-13T19:20:21.166Z,3.35
2023-05-13T19:22:47.534Z,3.13
2023-05-13T19:25:13.847Z,3.30
2023-05-13T19:27:40.649Z,3.47
2023-05-13T19:30:07.463Z,3.25
2023-05-13T19:32:33.847Z,3.38
2023-05-13T19:35:00.334Z,3.03
2023-05-13T19:37:26.877Z,2.90
2023-05-13T19:39:53.155Z,3.58
2023-05-13T19:42:19.510Z,2.95
2023-05-13T19:44:46.066Z,3.30
2023-05-13T19:47:12.338Z,3.28
2023-05-13T19:49:38.651Z,3.40
2023-05-13T19:52:05.180Z,3.00
2023-05-13T19:54:31.515Z,3.03
2023-05-13T19:56:57.818Z,3.38
2023-05-13T19:59:24.154Z,3.10
2023-05-13T20:01:50.981Z,3.20
2023-05-13T20:04:17.296Z,3.30
2023-05-13T20:06:43.593Z,3.00
2023-05-13T20:09:10.465Z,3.22
2023-05-13T20:11:36.826Z,3.35
2023-05-13T20:14:03.078Z,3.70
2023-05-13T20:16:29.401Z,3.67
2023-05-13T20:18:55.757Z,3.38
2023-05-13T20:21:22.072Z,3.20
2023-05-13T20:23:48.421Z,3.72
2023-05-13T20:26:14.926Z,3.42
2023-05-13T20:28:41.301Z,3.53
2023-05-13T20:31:07.553Z,3.38
2023-05-13T20:33:33.926Z,3.30
2023-05-13T20:36:00.859Z,4.15
2023-05-13T20:38:27.248Z,3.63
2023-05-13T20:40:53.532Z,3.00
2023-05-13T20:43:19.917Z,3.13
2023-05-13T20:45:46.289Z,3.22
2023-05-13T20:48:13.614Z,3.42
2023-05-13T20:50:40.009Z,3.50
2023-05-13T20:53:06.399Z,3.55
2023-05-13T20:55:32.654Z,3.65
2023-05-13T20:57:59.003Z,3.58
2023-05-13T21:00:25.520Z,3.40
2023-05-13T21:02:53.150Z,3.42
2023-05-13T21:05:19.651Z,3.70
2023-05-13T21:07:45.941Z,3.53
2023-05-13T21:10:12.269Z,3.50
2023-05-13T21:12:38.640Z,3.17
2023-05-13T21:15:05.385Z,3.40
2023-05-13T21:17:31.738Z,3.50
2023-05-13T21:19:58.381Z,3.65
2023-05-13T21:22:24.672Z,3.70
2023-05-13T21:24:51.022Z,3.65
2023-05-13T21:27:17.325Z,3.20
2023-05-13T21:29:43.675Z,3.80
2023-05-13T21:32:09.946Z,3.75
2023-05-13T21:34:36.179Z,4.07
2023-05-13T21:37:02.385Z,3.70
2023-05-13T21:39:28.697Z,4.03
2023-05-13T21:41:55.035Z,3.78
2023-05-13T21:44:21.609Z,4.32
2023-05-13T21:46:47.901Z,3.55
2023-05-13T21:49:14.259Z,3.60
2023-05-13T21:51:40.590Z,3.70
2023-05-13T21:54:06.862Z,3.33
2023-05-13T21:56:33.121Z,3.60
2023-05-13T21:58:59.445Z,3.25
2023-05-13T22:01:25.867Z,3.88
2023-05-13T22:03:52.283Z,3.65
2023-05-13T22:06:18.630Z,3.42
2023-05-13T22:08:45.110Z,3.67
2023-05-13T22:11:12.518Z,3.63
2023-05-13T22:13:38.933Z,3.40
2023-05-13T22:16:05.240Z,3.92
2023-05-13T22:18:31.799Z,4.05
2023-05-13T22:21:00.587Z,4.03
2023-05-13T22:23:27.000Z,3.67
2023-05-13T22:25:53.292Z,3.88
2023-05-13T22:28:19.648Z,4.05
2023-05-13T22:30:46.583Z,3.47
2023-05-13T22:33:13.011Z,3.72
2023-05-13T22:35:39.485Z,3.67
2023-05-13T22:38:05.898Z,3.30
2023-05-13T22:40:32.271Z,3.67
2023-05-13T22:42:58.573Z,3.45
2023-05-13T22:45:24.931Z,3.08
2023-05-13T22:47:51.414Z,3.83
2023-05-13T22:50:17.770Z,3.72
2023-05-13T22:52:44.037Z,3.88
2023-05-13T22:55:10.645Z,3.60
2023-05-13T22:57:38.067Z,3.58
2023-05-13T23:00:04.851Z,3.20
2023-05-13T23:02:31.210Z,3.47
2023-05-13T23:04:57.519Z,3.45
2023-05-13T23:07:23.865Z,3.72
2023-05-13T23:09:50.280Z,3.72
2023-05-13T23:12:16.561Z,3.63
2023-05-13T23:14:42.889Z,3.42
2023-05-13T23:17:09.210Z,3.40
2023-05-13T23:19:35.608Z,3.95
2023-05-13T23:22:01.958Z,3.88
2023-05-13T23:24:28.283Z,3.50
2023-05-13T23:26:54.617Z,3.55
2023-05-13T23:29:21.090Z,3.92
2023-05-13T23:31:47.393Z,3.47
2023-05-13T23:34:13.665Z,3.78
2023-05-13T23:36:39.942Z,3.65
2023-05-13T23:39:06.391Z,3.47
2023-05-13T23:41:34.927Z,3.90
2023-05-13T23:44:01.338Z,3.63
2023-05-13T23:46:27.755Z,3.50
2023-05-13T23:48:54.197Z,3.78
2023-05-13T23:51:20.858Z,3.40
2023-05-13T23:53:47.171Z,3.20
2023-05-13T23:56:13.488Z,3.03
2023-05-13T23:58:39.817Z,4.00
